Latest Weather Observations for Marble Bar

IDW60801

Issued at 8:35 pm WST Wednesday 20 August 2014 (issued every 30 minutes, with the page automatically refreshed every 10 minutes)

About weather observations | Map of weather stations | Latest weather observations for WA | Other Formats
Station Details ID: 004106 Name: MARBLE BAR Lat: -21.18 Lon: 119.75 Height: 182.3 m
Data from the previous 72 hours. | See also: Recent months at Marble Bar
Date/Time
WST
Temp
°C
App
Temp
°C
Dew
Point
Rel
Hum
%
Delta-T
°C
Wind Press
QNH
hPa
Press
MSL
hPa
Rain
since 9 am
mm
Dir
 
Spd
km/h
Gust
km/h
Spd
kts
Gust
kts
20/08:30pm 19.2 16.1 -2.4 23 9.1 NNW 4 6 2 3 1016.8 1016.2 0.4
20/08:00pm 21.5 17.0 -3.1 19 10.4 NNW 11 15 6 8 1016.4 1015.8 0.4
20/07:30pm 21.2 16.9 -2.0 21 10.0 N 11 15 6 8 1016.0 1015.4 0.4
20/07:00pm 19.5 17.5 0.0 27 8.6 CALM 0 0 0 0 1015.5 1014.9 0.4
20/06:30pm 21.7 19.4 -2.2 20 10.4 CALM 0 2 0 1 1015.1 1014.5 0.4
20/06:00pm 24.7 21.3 -5.5 13 12.6 N 4 6 2 3 1015.0 1014.4 0.4
20/05:30pm 27.3 23.2 -6.9 10 14.3 NW 7 11 4 6 1014.7 1014.0 0.4
20/05:00pm 28.6 25.5 -6.0 10 14.8 ENE 2 4 1 2 1014.6 1013.9 0.4
20/04:30pm 29.1 25.3 -5.6 10 15.0 N 6 11 3 6 1014.4 1013.7 0.4
20/04:00pm 28.7 25.2 -5.9 10 14.9 NNE 4 9 2 5 1014.5 1013.8 0.4
20/03:30pm 29.3 24.4 -6.8 9 15.4 N 11 20 6 11 1014.7 1014.0 0.4
20/03:00pm 29.4 24.9 -6.7 9 15.4 W 9 20 5 11 1014.8 1014.1 0.4
20/02:30pm 29.4 24.7 -5.4 10 15.2 NNW 11 19 6 10 1015.0 1014.4 0.4
20/02:00pm 29.4 23.5 -5.4 10 15.2 N 17 26 9 14 1015.2 1014.6 0.4
20/01:30pm 28.8 24.8 -5.8 10 14.9 E 7 17 4 9 1015.6 1015.0 0.4
20/01:00pm 28.3 24.2 -6.2 10 14.7 NE 7 15 4 8 1016.2 1015.6 0.4
20/12:30pm 28.6 24.3 -4.7 11 14.6 NNW 9 19 5 10 1016.6 1016.0 0.4
20/12:00pm 28.7 24.2 -3.5 12 14.4 NW 11 17 6 9 1017.1 1016.5 0.4
20/11:30am 28.0 24.7 -1.0 15 13.5 SSW 6 15 3 8 1017.8 1017.1 0.4
20/11:00am 26.7 23.5 -0.3 17 12.6 SE 6 11 3 6 1018.1 1017.4 0.2
20/10:30am 25.8 22.8 0.5 19 11.9 SSE 6 9 3 5 1018.4 1017.7 0.2
20/10:00am 25.2 21.7 1.3 21 11.4 SE 9 15 5 8 1018.4 1017.7 0.0
20/09:30am 23.7 20.6 1.4 23 10.5 SSE 7 13 4 7 1018.5 1017.8 0.0
20/09:00am 21.7 19.2 1.4 26 9.4 S 4 7 2 4 1018.6 1017.9 0.0
20/08:30am 19.5 16.9 1.0 29 8.4 S 4 6 2 3 1018.6 - 0.0
20/08:00am 16.9 15.2 1.8 36 6.8 CALM 0 0 0 0 1018.5 1017.8 0.0
20/07:30am 14.6 12.5 1.8 42 5.7 SSE 2 6 1 3 1018.2 - 0.0
20/07:00am 11.2 9.8 3.5 59 3.4 CALM 0 2 0 1 1017.8 1017.1 0.0
20/06:30am 9.0 7.0 2.1 62 2.9 S 2 4 1 2 1017.5 - 0.0
20/06:00am 9.4 7.3 2.0 60 3.1 S 2 4 1 2 1017.3 1016.7 0.0
20/05:30am 10.5 8.4 1.6 54 3.8 S 2 2 1 1 1016.9 - 0.0
20/05:00am 10.1 8.4 1.7 56 3.5 CALM 0 0 0 0 1016.5 1015.9 0.0
20/04:30am 9.5 7.8 1.9 59 3.2 CALM 0 4 0 2 1016.3 - 0.0
20/04:00am 10.4 8.6 1.5 54 3.8 CALM 0 0 0 0 1016.3 1015.7 0.0
20/03:30am 11.5 9.3 0.9 48 4.5 SSE 2 4 1 2 1016.4 - 0.0
20/03:00am 12.3 10.4 0.7 45 4.9 CALM 0 0 0 0 1016.5 1015.9 0.0
20/02:30am 15.4 12.6 -0.4 34 6.7 S 4 7 2 4 1016.7 - 0.0
20/02:00am 16.2 14.1 -0.5 32 7.1 CALM 0 4 0 2 1016.7 1016.1 0.0
20/01:30am 16.4 12.7 0.1 33 7.1 SW 9 13 5 7 1016.8 - 0.0
20/01:00am 15.9 12.5 -0.3 33 6.9 SSW 7 11 4 6 1016.9 1016.3 0.0
20/12:30am 13.7 10.7 1.0 42 5.5 S 6 7 3 4 1016.9 - 0.0
20/12:00am 13.7 11.6 1.4 43 5.3 SE 2 4 1 2 1017.1 1016.5 0.0
 
Date/Time
WST
Temp
°C
App
Temp
°C
Dew
Point
Rel
Hum
%
Delta-T
°C
Wind Press
QNH
hPa
Press
MSL
hPa
Rain
since 9 am
mm
Dir
 
Spd
km/h
Gust
km/h
Spd
kts
Gust
kts
19/11:30pm 15.2 12.9 0.2 36 6.4 E 2 2 1 1 1017.2 - 0.0
19/11:00pm 19.1 15.5 -1.9 24 8.9 W 7 13 4 7 1017.5 1016.9 0.0
19/10:30pm 20.7 17.2 -1.1 23 9.6 NW 7 11 4 6 1017.8 - 0.0
19/10:00pm 20.9 17.6 0.2 25 9.3 WNW 7 11 4 6 1017.9 1017.2 0.0
19/09:30pm 19.6 16.4 0.6 28 8.5 NW 7 9 4 5 1018.0 - 0.0
19/09:00pm 18.1 15.2 1.2 32 7.6 WNW 6 9 3 5 1018.0 1017.3 0.0
19/08:30pm 16.4 14.6 1.3 36 6.7 CALM 0 0 0 0 1017.4 - 0.0
19/08:00pm 17.0 15.4 2.2 37 6.7 CALM 0 0 0 0 1017.3 1016.7 0.0
19/07:30pm 17.9 15.8 1.8 34 7.3 ESE 2 4 1 2 1017.0 - 0.0
19/07:00pm 18.9 16.8 1.4 31 7.9 ESE 2 4 1 2 1016.7 1016.1 0.0
19/06:30pm 21.2 19.2 -0.1 24 9.6 CALM 0 0 0 0 1016.4 - 0.0
19/06:00pm 23.9 21.3 -1.8 18 11.4 W 2 2 1 1 1016.2 1015.6 0.0
19/05:30pm 27.2 24.1 -5.8 11 14.0 WSW 2 6 1 3 1016.1 - 0.0
19/05:00pm 28.3 25.2 -6.2 10 14.7 NW 2 4 1 2 1016.0 1015.4 0.0
19/04:30pm 28.6 25.1 -6.0 10 14.8 SE 4 9 2 5 1015.9 - 0.0
19/04:00pm 28.6 25.5 -6.0 10 14.8 ESE 2 7 1 4 1015.8 1015.2 0.0
19/03:30pm 28.4 24.4 -7.5 9 15.0 WNW 6 9 3 5 1015.9 - 0.0
19/03:00pm 28.8 25.3 -5.8 10 14.9 N 4 7 2 4 1016.1 1015.5 0.0
19/02:30pm 28.9 25.5 -5.7 10 14.9 ESE 4 9 2 5 1016.3 - 0.0
19/02:00pm 29.0 24.6 -5.7 10 15.0 E 9 15 5 8 1016.5 1015.9 0.0
19/01:30pm 28.1 24.3 -5.1 11 14.4 SW 6 11 3 6 1016.8 - 0.0
19/01:00pm 28.3 24.1 -3.8 12 14.2 ENE 9 15 5 8 1017.4 1016.8 0.0
19/12:30pm 27.3 23.3 -5.7 11 14.1 E 7 15 4 8 1018.1 - 0.0
19/12:00pm 26.9 23.0 -4.9 12 13.7 E 7 13 4 7 1018.6 1017.9 0.0
19/11:30am 26.4 23.0 -5.3 12 13.5 ENE 4 11 2 6 1018.9 - 0.0
19/11:00am 26.7 23.2 -3.0 14 13.2 E 6 9 3 5 1019.3 1018.6 0.0
19/10:30am 25.2 21.8 -2.4 16 12.3 NNE 6 13 3 7 1019.9 - 0.0
19/10:00am 24.5 21.1 -2.1 17 11.8 ENE 6 9 3 5 1019.9 1019.3 0.0
19/09:30am 23.8 21.3 -1.2 19 11.2 E 2 6 1 3 1020.3 - 0.0
19/09:00am 21.2 18.8 -0.1 24 9.5 SSE 2 4 1 2 1020.5 1019.9 0.0
19/08:30am 18.5 15.8 0.2 29 8.1 SSW 4 6 2 3 1020.6 - 0.0
19/08:00am 16.2 13.9 0.7 35 6.8 S 2 4 1 2 1020.4 1019.8 0.0
19/07:30am 13.5 11.4 1.8 45 5.1 S 2 4 1 2 1020.3 - 0.0
19/07:00am 11.3 8.9 2.3 54 3.9 S 4 6 2 3 1020.0 1019.4 0.0
19/06:30am 9.2 7.1 1.4 58 3.2 S 2 4 1 2 1019.6 - 0.0
19/06:00am 10.1 7.5 1.2 54 3.7 S 4 4 2 2 1019.4 1018.7 0.0
19/05:30am 8.4 6.0 2.2 65 2.6 S 4 6 2 3 1019.1 - 0.0
19/05:00am 9.0 6.6 2.3 63 2.8 S 4 4 2 2 1018.8 1018.1 0.0
19/04:30am 9.5 7.5 2.1 60 3.1 S 2 4 1 2 1018.7 - 0.0
19/04:00am 9.5 7.0 1.7 58 3.3 S 4 6 2 3 1018.7 1018.0 0.0
19/03:30am 9.7 6.7 1.1 55 3.6 SSE 6 7 3 4 1018.6 - 0.0
19/03:00am 11.0 8.5 1.5 52 4.0 ESE 4 6 2 3 1018.8 1018.1 0.0
19/02:30am 9.4 7.3 1.6 58 3.3 SE 2 4 1 2 1018.9 - 0.0
19/02:00am 10.1 7.1 0.7 52 3.9 SSE 6 7 3 4 1019.1 1018.4 0.0
19/01:30am 10.2 8.5 1.6 55 3.6 CALM 0 0 0 0 1019.1 - 0.0
19/01:00am 10.7 8.9 1.5 53 3.9 CALM 0 2 0 1 1019.2 1018.5 0.0
19/12:30am 11.7 9.4 0.5 46 4.7 SE 2 4 1 2 1019.4 - 0.0
19/12:00am 12.3 10.0 0.7 45 4.9 SSE 2 4 1 2 1019.7 1019.0 0.0
 
Date/Time
WST
Temp
°C
App
Temp
°C
Dew
Point
Rel
Hum
%
Delta-T
°C
Wind Press
QNH
hPa
Press
MSL
hPa
Rain
since 9 am
mm
Dir
 
Spd
km/h
Gust
km/h
Spd
kts
Gust
kts
18/11:30pm 13.3 11.3 0.0 40 5.6 CALM 0 0 0 0 1019.8 - 0.0
18/11:00pm 14.3 11.1 -0.5 36 6.2 NNW 6 13 3 7 1020.1 1019.5 0.0
18/10:30pm 13.6 10.5 0.3 40 5.6 SW 6 7 3 4 1020.0 - 0.0
18/10:00pm 13.6 11.3 0.3 40 5.6 SSE 2 4 1 2 1019.7 1019.0 0.0
18/09:30pm 14.5 12.5 0.0 37 6.2 CALM 0 0 0 0 1019.6 - 0.0
18/09:00pm 15.4 13.4 0.0 35 6.6 CALM 0 0 0 0 1019.6 1018.9 0.0
18/08:30pm 15.2 12.9 0.2 36 6.4 SE 2 4 1 2 1019.4 - 0.0
18/08:00pm 16.0 14.2 1.0 36 6.6 CALM 0 0 0 0 1019.1 1018.4 0.0
18/07:30pm 17.4 15.3 -0.8 29 7.8 CALM 0 4 0 2 1018.7 - 0.0
18/07:00pm 18.1 15.6 -0.7 28 8.1 SSE 2 6 1 3 1018.3 1017.6 0.0
18/06:30pm 19.6 16.6 -1.5 24 9.1 E 4 4 2 2 1018.0 - 0.0
18/06:00pm 23.1 20.1 -4.9 15 11.6 E 2 4 1 2 1017.8 1017.1 0.0
18/05:30pm 24.8 21.4 -5.5 13 12.7 E 4 6 2 3 1017.5 - 0.0
18/05:00pm 25.7 22.1 -6.9 11 13.4 ESE 4 7 2 4 1017.3 1016.7 0.0
18/04:30pm 26.3 22.4 -6.5 11 13.6 SE 6 13 3 7 1017.2 - 0.0
18/04:00pm 26.5 22.9 -7.6 10 13.9 NE 4 11 2 6 1017.1 1016.5 0.0
18/03:30pm 26.3 22.2 -9.1 9 14.0 S 6 13 3 7 1017.1 - 0.0
18/03:00pm 27.2 23.2 -5.8 11 14.0 ESE 7 15 4 8 1017.0 1016.4 0.0
18/02:30pm 26.8 22.8 -6.1 11 13.9 NE 7 17 4 9 1017.3 - 0.0
18/02:00pm 27.0 23.0 -5.9 11 13.9 SSE 7 13 4 7 1017.6 1017.0 0.0
18/01:30pm 27.0 22.6 -5.9 11 13.9 ESE 9 17 5 9 1018.1 - 0.0
18/01:00pm 26.3 22.0 -5.3 12 13.4 SE 9 20 5 11 1018.6 1017.9 0.0
18/12:30pm 25.6 20.8 -5.9 12 13.2 ESE 11 20 6 11 1019.2 - 0.0
18/12:00pm 25.2 20.9 -5.1 13 12.8 ESE 9 17 5 9 1019.8 1019.2 0.0
18/11:30am 24.9 20.5 -5.4 13 12.7 E 9 19 5 10 1020.3 - 0.0
18/11:00am 24.4 19.7 -4.8 14 12.3 ENE 11 22 6 12 1020.9 1020.3 0.0
18/10:30am 24.2 19.9 -4.9 14 12.2 E 9 26 5 14 1021.4 - 0.0
18/10:00am 24.7 18.6 -3.6 15 12.2 SE 19 22 10 12 1021.7 1021.1 0.0
18/09:30am 23.9 18.2 -3.4 16 11.8 ESE 17 24 9 13 1021.9 - 0.0
18/09:00am 22.7 17.6 -2.1 19 10.8 ESE 15 20 8 11 1022.0 1021.4 0.0
18/08:30am 19.4 17.0 -0.1 27 8.6 S 2 6 1 3 1022.2 - 0.0
18/08:00am 16.3 13.5 -0.4 32 7.1 SSW 4 6 2 3 1022.0 1021.4 0.0
18/07:30am 13.8 11.8 -0.3 38 5.9 CALM 0 4 0 2 1021.8 - 0.0
18/07:00am 11.3 9.5 1.0 49 4.3 CALM 0 0 0 0 1021.3 1020.7 0.0
18/06:30am 10.0 7.9 -0.5 48 4.2 CALM 0 2 0 1 1021.1 - 0.0
18/06:00am 10.3 7.8 -1.1 45 4.5 S 2 4 1 2 1020.5 1019.9 0.0
18/05:30am 10.3 7.4 -1.1 45 4.5 SSW 4 7 2 4 1020.2 - 0.0
18/05:00am 10.9 8.4 -0.9 44 4.7 S 2 4 1 2 1020.0 1019.4 0.0
18/04:30am 11.3 8.7 -1.5 41 5.1 S 2 6 1 3 1019.8 - 0.0
18/04:00am 11.1 8.2 -1.3 42 4.9 S 4 6 2 3 1019.8 1019.2 0.0
18/03:30am 11.5 9.0 -1.3 41 5.1 S 2 6 1 3 1019.9 - 0.0
18/03:00am 11.6 8.7 -1.2 41 5.1 SSW 4 6 2 3 1020.0 1019.4 0.0
18/02:30am 12.0 9.8 -1.5 39 5.4 CALM 0 2 0 1 1020.1 - 0.0
18/02:00am 12.7 10.1 -2.0 36 5.8 SSE 2 4 1 2 1020.1 1019.5 0.0
18/01:30am 14.6 11.0 -2.3 31 6.8 SE 7 9 4 5 1020.2 - 0.0
18/01:00am 14.5 10.9 -2.4 31 6.8 SE 7 9 4 5 1020.3 1019.7 0.0
18/12:30am 15.1 10.7 -2.3 30 7.1 SE 11 13 6 7 1020.5 - 0.0
18/12:00am 15.6 10.8 -2.3 29 7.3 SE 13 15 7 8 1020.8 1020.2 0.0
 
Date/Time
WST
Temp
°C
App
Temp
°C
Dew
Point
Rel
Hum
%
Delta-T
°C
Wind Press
QNH
hPa
Press
MSL
hPa
Rain
since 9 am
mm
Dir
 
Spd
km/h
Gust
km/h
Spd
kts
Gust
kts
17/11:30pm 16.0 11.6 -2.5 28 7.5 SE 11 15 6 8 1021.1 - 0.0
17/11:00pm 15.4 11.0 -2.5 29 7.2 SE 11 13 6 7 1021.0 1020.4 0.0
17/10:30pm 16.1 11.7 -2.4 28 7.6 SE 11 13 6 7 1021.0 - 0.0
17/10:00pm 15.6 11.6 -2.3 29 7.3 SE 9 11 5 6 1021.0 1020.4 0.0
17/09:30pm 16.0 12.0 -2.5 28 7.5 SE 9 13 5 7 1021.0 - 0.0
17/09:00pm 16.5 12.5 -2.0 28 7.6 SE 9 13 5 7 1020.9 1020.3 0.0

Other Formats:

Comma delimited format used in spreadsheet applications
http://www.bom.gov.au/fwo/IDW60801/IDW60801.95317.axf

JavaScript Object Notation format (JSON) in row-major order
http://www.bom.gov.au/fwo/IDW60801/IDW60801.95317.json